createdAt,value
2023-04-19T00:00:44.028Z,71.32
2023-04-19T00:03:11.550Z,70.34
2023-04-19T00:05:41.570Z,69.92
2023-04-19T00:08:08.243Z,70.50
2023-04-19T00:10:35.927Z,70.26
2023-04-19T00:13:03.188Z,71.91
2023-04-19T00:15:29.632Z,70.71
2023-04-19T00:17:56.626Z,71.03
2023-04-19T00:20:23.250Z,71.87
2023-04-19T00:22:49.808Z,71.21
2023-04-19T00:25:16.234Z,71.60
2023-04-19T00:27:42.793Z,71.76
2023-04-19T00:30:09.570Z,71.03
2023-04-19T00:32:36.315Z,71.25
2023-04-19T00:35:02.767Z,71.38
2023-04-19T00:37:31.778Z,71.48
2023-04-19T00:39:58.320Z,70.62
2023-04-19T00:42:26.267Z,71.03
2023-04-19T00:44:52.716Z,71.19
2023-04-19T00:47:19.384Z,71.63
2023-04-19T00:49:46.482Z,71.90
2023-04-19T00:52:13.280Z,71.53
2023-04-19T00:54:41.084Z,72.21
2023-04-19T00:57:07.529Z,72.23
2023-04-19T00:59:35.146Z,71.95
2023-04-19T01:02:03.849Z,71.66
2023-04-19T01:04:30.593Z,71.93
2023-04-19T01:06:57.395Z,72.27
2023-04-19T01:09:23.854Z,73.06
2023-04-19T01:11:50.974Z,72.48
2023-04-19T01:14:17.501Z,72.53
2023-04-19T01:16:46.629Z,72.62
2023-04-19T01:19:13.039Z,72.67
2023-04-19T01:21:40.393Z,73.09
2023-04-19T01:24:07.124Z,73.67
2023-04-19T01:26:33.747Z,73.17
2023-04-19T01:29:02.224Z,73.30
2023-04-19T01:31:28.881Z,73.04
2023-04-19T01:33:55.589Z,72.72
2023-04-19T01:36:22.293Z,72.36
2023-04-19T01:38:49.911Z,73.18
2023-04-19T01:41:16.613Z,72.78
2023-04-19T01:43:43.200Z,73.32
2023-04-19T01:46:09.778Z,72.58
2023-04-19T01:48:37.850Z,73.36
2023-04-19T01:51:04.573Z,72.90
2023-04-19T01:53:33.388Z,72.50
2023-04-19T01:56:00.439Z,72.71
2023-04-19T01:58:26.837Z,73.21
2023-04-19T02:00:54.091Z,72.92
2023-04-19T02:03:20.652Z,72.14
2023-04-19T02:05:49.307Z,72.30
2023-04-19T02:08:15.963Z,72.31
2023-04-19T02:10:42.452Z,73.26
2023-04-19T02:13:09.114Z,73.63
2023-04-19T02:15:37.260Z,72.92
2023-04-19T02:18:06.733Z,72.98
2023-04-19T02:20:33.450Z,72.98
2023-04-19T02:22:59.928Z,72.47
2023-04-19T02:25:27.451Z,73.06
2023-04-19T02:27:54.053Z,73.34
2023-04-19T02:30:20.954Z,72.76
2023-04-19T02:32:51.184Z,72.46
2023-04-19T02:35:17.676Z,72.50
2023-04-19T02:37:44.587Z,73.47
2023-04-19T02:40:11.224Z,73.66
2023-04-19T02:42:37.732Z,73.66
2023-04-19T02:45:05.684Z,73.62
2023-04-19T02:47:32.327Z,74.51
2023-04-19T02:50:00.392Z,74.74
2023-04-19T02:52:27.918Z,74.43
2023-04-19T02:54:54.518Z,74.39
2023-04-19T02:57:21.226Z,73.80
2023-04-19T02:59:48.306Z,74.55
2023-04-19T03:02:15.496Z,74.22
2023-04-19T03:04:43.380Z,74.56
2023-04-19T03:07:10.140Z,74.48
2023-04-19T03:09:37.063Z,74.83
2023-04-19T03:12:04.708Z,75.31
2023-04-19T03:14:31.238Z,74.93
2023-04-19T03:16:57.727Z,74.86
2023-04-19T03:19:24.263Z,74.54
2023-04-19T03:21:51.904Z,74.66
2023-04-19T03:24:20.346Z,74.84
2023-04-19T03:26:50.705Z,74.00
2023-04-19T03:29:22.128Z,74.15
2023-04-19T03:31:57.662Z,73.91
2023-04-19T03:34:24.140Z,74.43
2023-04-19T03:36:50.824Z,74.37
2023-04-19T03:39:18.538Z,74.49
2023-04-19T03:41:48.353Z,74.63
2023-04-19T03:44:33.472Z,74.65
2023-04-19T03:47:02.374Z,74.60
2023-04-19T03:49:33.471Z,74.33
2023-04-19T03:52:04.494Z,75.04
2023-04-19T03:54:30.922Z,74.99
2023-04-19T03:56:59.457Z,75.19
2023-04-19T03:59:26.436Z,75.19
2023-04-19T04:01:53.676Z,75.87
2023-04-19T04:04:20.501Z,75.13
2023-04-19T04:06:47.256Z,75.51
2023-04-19T04:09:16.233Z,74.89
2023-04-19T04:11:43.443Z,74.74
2023-04-19T04:14:10.404Z,75.42
2023-04-19T04:16:38.394Z,75.17
2023-04-19T04:19:05.452Z,75.78
2023-04-19T04:21:34.845Z,75.63
2023-04-19T04:24:03.811Z,75.45
2023-04-19T04:26:39.480Z,75.67
2023-04-19T04:29:17.518Z,75.98
2023-04-19T04:31:44.948Z,75.73
2023-04-19T04:34:14.274Z,76.11
2023-04-19T04:36:50.544Z,75.65
2023-04-19T04:39:18.807Z,76.27
2023-04-19T04:41:46.469Z,76.57
2023-04-19T04:44:13.209Z,75.82
2023-04-19T04:46:42.056Z,75.85
2023-04-19T04:49:11.190Z,76.31
2023-04-19T04:51:41.688Z,76.46
2023-04-19T04:54:08.896Z,76.13
2023-04-19T04:56:36.819Z,76.62
2023-04-19T04:59:03.360Z,75.87
2023-04-19T05:01:34.595Z,76.00
2023-04-19T05:04:01.746Z,76.33
2023-04-19T05:06:28.308Z,75.94
2023-04-19T05:08:54.772Z,76.86
2023-04-19T05:11:33.704Z,76.47
2023-04-19T05:14:00.796Z,76.88
2023-04-19T05:16:27.934Z,76.64
2023-04-19T05:18:55.361Z,76.44
2023-04-19T05:21:23.107Z,76.36
2023-04-19T05:23:49.739Z,76.50
2023-04-19T05:26:16.262Z,75.95
2023-04-19T05:28:44.645Z,76.37
2023-04-19T05:31:21.025Z,75.62
2023-04-19T05:34:06.192Z,74.90
2023-04-19T05:36:32.920Z,75.20
2023-04-19T05:38:59.344Z,75.09
2023-04-19T05:41:25.934Z,74.62
2023-04-19T05:43:52.349Z,74.39
2023-04-19T05:46:19.866Z,73.88
2023-04-19T05:48:46.540Z,73.55
2023-04-19T05:51:32.013Z,71.94
2023-04-19T05:54:12.487Z,71.03
2023-04-19T05:56:40.325Z,71.64
2023-04-19T05:59:06.945Z,70.42
2023-04-19T06:01:33.570Z,70.10
2023-04-19T06:04:00.282Z,69.99
2023-04-19T06:06:27.543Z,69.39
2023-04-19T06:08:55.024Z,68.96
2023-04-19T06:11:26.875Z,66.89
2023-04-19T06:14:02.094Z,68.34
2023-04-19T06:16:28.856Z,66.80
2023-04-19T06:18:55.336Z,67.02
2023-04-19T06:21:21.819Z,66.59
2023-04-19T06:23:48.216Z,64.86
2023-04-19T06:26:15.037Z,66.12
2023-04-19T06:28:41.449Z,65.15
2023-04-19T06:31:07.906Z,65.97
2023-04-19T06:33:34.442Z,64.11
2023-04-19T06:36:01.474Z,64.77
2023-04-19T06:38:52.892Z,64.08
2023-04-19T06:41:19.494Z,62.85
2023-04-19T06:43:46.230Z,61.56
2023-04-19T06:46:14.422Z,61.94
2023-04-19T06:48:41.142Z,62.19
2023-04-19T06:51:07.794Z,61.36
2023-04-19T06:53:34.665Z,61.86
2023-04-19T06:56:02.491Z,59.31
2023-04-19T06:58:29.107Z,60.18
2023-04-19T07:00:56.118Z,58.99
2023-04-19T07:03:23.107Z,60.78
2023-04-19T07:05:49.941Z,59.89
2023-04-19T07:08:16.454Z,58.13
2023-04-19T07:10:43.766Z,56.50
2023-04-19T07:13:13.544Z,57.89
2023-04-19T07:15:40.206Z,57.56
2023-04-19T07:18:07.200Z,58.63
2023-04-19T07:20:34.004Z,55.69
2023-04-19T07:23:00.784Z,57.75
2023-04-19T07:25:27.469Z,57.33
2023-04-19T07:27:55.622Z,55.70
2023-04-19T07:30:22.617Z,55.03
2023-04-19T07:32:51.624Z,52.79
2023-04-19T07:35:19.439Z,52.43
2023-04-19T07:37:46.179Z,53.51
2023-04-19T07:40:12.979Z,51.24
2023-04-19T07:42:39.447Z,54.20
2023-04-19T07:45:07.098Z,51.82
2023-04-19T07:47:33.778Z,51.27
2023-04-19T07:50:00.302Z,50.32
2023-04-19T07:52:26.877Z,48.13
2023-04-19T07:54:53.536Z,48.68
2023-04-19T07:57:20.001Z,48.28
2023-04-19T07:59:46.456Z,47.93
2023-04-19T08:02:12.957Z,46.62
2023-04-19T08:04:40.219Z,46.03
2023-04-19T08:07:06.909Z,43.50
2023-04-19T08:09:34.330Z,44.70
2023-04-19T08:12:01.313Z,44.74
2023-04-19T08:14:37.816Z,44.54
2023-04-19T08:17:24.348Z,43.54
2023-04-19T08:19:53.803Z,43.45
2023-04-19T08:22:21.586Z,43.72
2023-04-19T08:24:51.290Z,46.27
2023-04-19T08:27:18.321Z,43.95
2023-04-19T08:29:45.866Z,42.68
2023-04-19T08:32:12.835Z,41.94
2023-04-19T08:34:40.478Z,41.41
2023-04-19T08:37:09.509Z,41.83
2023-04-19T08:39:36.445Z,42.49
2023-04-19T08:42:13.322Z,40.65
2023-04-19T08:45:09.412Z,42.24
2023-04-19T08:47:48.537Z,41.83
2023-04-19T08:50:31.938Z,42.04
2023-04-19T08:53:12.175Z,39.99
2023-04-19T08:56:06.716Z,40.04
2023-04-19T08:58:50.370Z,39.10
2023-04-19T09:01:33.720Z,39.16
2023-04-19T09:04:10.255Z,39.81
2023-04-19T09:06:47.392Z,40.05
2023-04-19T09:09:28.731Z,40.08
2023-04-19T09:12:02.694Z,39.34
2023-04-19T09:14:29.644Z,38.98
2023-04-19T09:17:16.250Z,40.99
2023-04-19T09:19:49.918Z,39.62
2023-04-19T09:22:17.269Z,39.56
2023-04-19T09:27:15.498Z,41.45
2023-04-19T09:29:41.954Z,38.78
2023-04-19T09:32:08.675Z,38.57
2023-04-19T09:34:36.220Z,38.19
2023-04-19T09:37:22.782Z,39.45
2023-04-19T09:39:59.325Z,38.84
2023-04-19T09:43:05.441Z,39.65
2023-04-19T09:45:45.369Z,39.26
2023-04-19T09:48:13.102Z,37.96
2023-04-19T09:51:05.713Z,39.37
2023-04-19T09:53:36.817Z,39.29
2023-04-19T09:56:05.412Z,39.32
2023-04-19T09:58:42.647Z,38.31
2023-04-19T10:01:17.191Z,34.79
2023-04-19T10:03:49.450Z,36.36
2023-04-19T10:06:35.657Z,36.45
2023-04-19T10:09:05.050Z,36.29
2023-04-19T10:11:38.739Z,35.69
2023-04-19T10:14:10.533Z,35.43
2023-04-19T10:16:39.138Z,34.02
2023-04-19T10:19:10.024Z,34.45
2023-04-19T10:21:38.127Z,34.08
2023-04-19T10:24:05.555Z,32.19
2023-04-19T10:27:12.130Z,33.22
2023-04-19T10:29:58.292Z,32.38
2023-04-19T10:32:29.530Z,31.84
2023-04-19T10:35:04.728Z,31.89
2023-04-19T10:37:31.987Z,31.21
2023-04-19T10:39:58.379Z,31.17
2023-04-19T10:42:24.851Z,29.40
2023-04-19T10:45:28.835Z,29.74
2023-04-19T10:47:55.843Z,30.67
2023-04-19T10:50:24.207Z,30.07
2023-04-19T10:52:50.773Z,29.40
2023-04-19T10:55:20.150Z,26.23
2023-04-19T10:58:06.408Z,27.40
2023-04-19T11:00:33.592Z,28.05
2023-04-19T11:03:03.379Z,28.62
2023-04-19T11:05:30.130Z,26.87
2023-04-19T11:07:57.701Z,26.53
2023-04-19T11:10:31.295Z,26.86
2023-04-19T11:12:58.167Z,26.46
2023-04-19T11:15:24.889Z,24.69
2023-04-19T11:18:00.945Z,25.23
2023-04-19T11:20:31.374Z,24.90
2023-04-19T11:23:00.939Z,24.03
2023-04-19T11:25:28.039Z,24.34
2023-04-19T11:27:55.661Z,24.20
2023-04-19T11:30:29.655Z,24.15
2023-04-19T11:32:57.472Z,22.44
2023-04-19T11:35:25.956Z,22.37
2023-04-19T11:37:53.973Z,23.73
2023-04-19T11:40:22.414Z,24.06
2023-04-19T11:42:57.663Z,23.22
2023-04-19T11:45:32.221Z,23.23
2023-04-19T11:48:00.573Z,22.00
2023-04-19T11:50:31.267Z,22.60
2023-04-19T11:52:58.893Z,22.42
2023-04-19T11:55:25.463Z,22.03
2023-04-19T11:57:52.225Z,21.68
2023-04-19T12:00:28.487Z,23.66
2023-04-19T12:02:55.601Z,21.92
2023-04-19T12:05:23.680Z,22.71
2023-04-19T12:08:10.925Z,22.57
2023-04-19T12:10:37.624Z,21.49
2023-04-19T12:13:17.405Z,21.11
2023-04-19T12:15:45.262Z,23.65
2023-04-19T12:18:12.604Z,21.89
2023-04-19T12:20:45.605Z,21.41
2023-04-19T12:23:14.023Z,21.90
2023-04-19T12:25:41.308Z,21.82
2023-04-19T12:28:07.896Z,21.66
2023-04-19T12:30:36.417Z,20.75
2023-04-19T12:33:03.406Z,19.84
2023-04-19T12:35:30.724Z,20.90
2023-04-19T12:37:58.951Z,21.67
2023-04-19T12:40:26.953Z,21.09
2023-04-19T12:42:53.955Z,21.47
2023-04-19T12:45:21.214Z,20.89
2023-04-19T12:47:48.715Z,20.95
2023-04-19T12:50:16.177Z,21.58
2023-04-19T12:52:46.014Z,20.94
2023-04-19T12:55:12.933Z,22.30
2023-04-19T12:57:39.580Z,21.85
2023-04-19T13:00:07.336Z,20.47
2023-04-19T13:02:35.016Z,20.83
2023-04-19T13:05:02.475Z,20.75
2023-04-19T13:07:29.019Z,19.98
2023-04-19T13:09:56.659Z,23.09
2023-04-19T13:12:23.993Z,20.27
2023-04-19T13:14:52.381Z,19.88
2023-04-19T13:17:20.138Z,21.81
2023-04-19T13:19:47.552Z,21.05
2023-04-19T13:22:15.028Z,21.47
2023-04-19T13:24:41.718Z,21.44
2023-04-19T13:27:09.068Z,20.13
2023-04-19T13:29:36.154Z,19.85
2023-04-19T13:32:02.680Z,19.92
2023-04-19T13:34:29.487Z,20.85
2023-04-19T13:36:57.504Z,20.83
2023-04-19T13:39:24.121Z,20.22
2023-04-19T13:41:50.874Z,20.64
2023-04-19T13:44:17.687Z,21.04
2023-04-19T13:46:44.502Z,20.65
2023-04-19T13:49:11.178Z,20.88
2023-04-19T13:51:49.034Z,20.24
2023-04-19T13:54:21.214Z,21.28
2023-04-19T13:56:50.569Z,20.51
2023-04-19T13:59:18.173Z,20.89
2023-04-19T14:01:44.604Z,20.91
2023-04-19T14:04:11.322Z,20.85
2023-04-19T14:06:37.975Z,20.62
2023-04-19T14:09:04.456Z,19.31
2023-04-19T14:11:31.101Z,19.68
2023-04-19T14:13:57.993Z,20.28
2023-04-19T14:16:25.269Z,21.02
2023-04-19T14:18:52.782Z,19.56
2023-04-19T14:21:19.558Z,19.45
2023-04-19T14:23:46.102Z,21.54
2023-04-19T14:26:12.620Z,19.96
2023-04-19T14:28:39.360Z,21.77
2023-04-19T14:31:06.276Z,20.51
2023-04-19T14:33:32.798Z,19.64
2023-04-19T14:35:59.224Z,20.86
2023-04-19T14:38:25.920Z,21.91
2023-04-19T14:40:52.297Z,20.96
2023-04-19T14:43:18.726Z,21.77
2023-04-19T14:45:45.172Z,21.27
2023-04-19T14:48:11.819Z,22.28
2023-04-19T14:50:38.237Z,20.02
2023-04-19T14:53:04.685Z,19.62
2023-04-19T14:55:31.102Z,20.90
2023-04-19T14:57:57.790Z,20.35
2023-04-19T15:00:24.267Z,21.09
2023-04-19T15:02:50.913Z,21.21
2023-04-19T15:05:17.803Z,21.76
2023-04-19T15:07:44.440Z,19.80
2023-04-19T15:10:11.118Z,21.65
2023-04-19T15:12:37.554Z,21.68
2023-04-19T15:15:05.599Z,20.68
2023-04-19T15:17:32.050Z,20.94
2023-04-19T15:19:58.649Z,22.12
2023-04-19T15:22:25.323Z,21.56
2023-04-19T15:24:52.049Z,21.29
2023-04-19T15:27:18.463Z,20.54
2023-04-19T15:29:47.661Z,19.65
2023-04-19T15:32:14.215Z,20.33
2023-04-19T15:34:40.804Z,19.87
2023-04-19T15:37:08.046Z,20.64
2023-04-19T15:39:34.680Z,19.38
2023-04-19T15:42:01.989Z,19.56
2023-04-19T15:44:28.980Z,20.13
2023-04-19T15:46:56.094Z,21.80
2023-04-19T15:49:22.692Z,21.63
2023-04-19T15:51:49.089Z,21.61
2023-04-19T15:54:15.818Z,22.33
2023-04-19T15:56:42.238Z,22.23
2023-04-19T15:59:08.745Z,21.54
2023-04-19T16:01:36.077Z,22.43
2023-04-19T16:04:04.170Z,22.13
2023-04-19T16:06:31.816Z,22.66
2023-04-19T16:08:58.365Z,22.43
2023-04-19T16:11:24.801Z,23.05
2023-04-19T16:13:51.312Z,23.43
2023-04-19T16:16:17.856Z,24.17
2023-04-19T16:18:44.342Z,23.53
2023-04-19T16:21:10.754Z,23.32
2023-04-19T16:23:37.452Z,24.68
2023-04-19T16:26:03.949Z,23.83
2023-04-19T16:28:30.402Z,23.89
2023-04-19T16:30:57.114Z,25.43
2023-04-19T16:33:23.868Z,25.68
2023-04-19T16:35:50.276Z,25.69
2023-04-19T16:38:16.858Z,25.99
2023-04-19T16:40:46.073Z,25.76
2023-04-19T16:43:12.810Z,25.91
2023-04-19T16:45:39.815Z,25.42
2023-04-19T16:48:06.476Z,26.70
2023-04-19T16:50:33.129Z,27.03
2023-04-19T16:52:59.579Z,26.89
2023-04-19T16:55:26.012Z,26.87
2023-04-19T16:57:55.561Z,27.37
2023-04-19T17:00:22.979Z,27.42
2023-04-19T17:02:49.795Z,27.55
2023-04-19T17:05:16.410Z,29.29
2023-04-19T17:07:45.715Z,28.17
2023-04-19T17:10:12.481Z,27.88
2023-04-19T17:12:39.087Z,27.96
2023-04-19T17:15:06.163Z,28.84
2023-04-19T17:17:32.784Z,28.65
2023-04-19T17:19:59.249Z,28.88
2023-04-19T17:22:25.825Z,29.00
2023-04-19T17:24:53.993Z,29.03
2023-04-19T17:27:20.803Z,29.83
2023-04-19T17:29:47.266Z,30.41
2023-04-19T17:32:13.885Z,30.31
2023-04-19T17:34:40.347Z,29.78
2023-04-19T17:37:06.815Z,31.37
2023-04-19T17:39:33.242Z,29.50
2023-04-19T17:41:59.980Z,29.69
2023-04-19T17:44:26.883Z,30.76
2023-04-19T17:46:53.738Z,30.30
2023-04-19T17:49:21.648Z,30.82
2023-04-19T17:51:48.601Z,32.42
2023-04-19T17:54:15.982Z,31.91
2023-04-19T17:56:42.437Z,32.10
2023-04-19T17:59:08.996Z,31.53
2023-04-19T18:01:35.611Z,33.39
2023-04-19T18:04:03.454Z,31.79
2023-04-19T18:06:30.002Z,32.79
2023-04-19T18:08:56.475Z,31.84
2023-04-19T18:11:22.942Z,32.26
2023-04-19T18:13:49.641Z,33.65
2023-04-19T18:16:17.248Z,32.91
2023-04-19T18:18:44.377Z,32.01
2023-04-19T18:21:10.824Z,32.59
2023-04-19T18:23:37.404Z,33.83
2023-04-19T18:26:04.012Z,33.88
2023-04-19T18:28:30.940Z,33.59
2023-04-19T18:30:57.424Z,35.62
2023-04-19T18:33:24.007Z,35.04
2023-04-19T18:35:50.468Z,34.81
2023-04-19T18:38:16.947Z,35.41
2023-04-19T18:40:43.390Z,36.82
2023-04-19T18:43:10.302Z,36.46
2023-04-19T18:45:37.219Z,36.72
2023-04-19T18:48:03.934Z,36.35
2023-04-19T18:50:30.967Z,37.29
2023-04-19T18:52:57.820Z,37.25
2023-04-19T18:55:24.708Z,36.87
2023-04-19T18:57:51.128Z,37.49
2023-04-19T19:00:18.710Z,38.68
2023-04-19T19:02:45.996Z,38.11
2023-04-19T19:05:13.676Z,38.53
2023-04-19T19:07:41.598Z,39.23
2023-04-19T19:12:39.693Z,37.99
2023-04-19T19:15:07.127Z,38.32
2023-04-19T19:17:33.721Z,39.81
2023-04-19T19:20:00.801Z,38.76
2023-04-19T19:22:28.841Z,39.42
2023-04-19T19:24:56.199Z,38.92
2023-04-19T19:27:22.790Z,39.66
2023-04-19T19:29:49.494Z,38.88
2023-04-19T19:32:16.168Z,41.15
2023-04-19T19:34:54.056Z,40.36
2023-04-19T19:37:23.015Z,40.59
2023-04-19T19:39:49.905Z,41.71
2023-04-19T19:42:17.625Z,40.43
2023-04-19T19:44:44.601Z,39.80
2023-04-19T19:47:12.214Z,39.36
2023-04-19T19:52:08.534Z,39.78
2023-04-19T19:54:35.237Z,40.40
2023-04-19T19:59:34.849Z,41.55
2023-04-19T20:02:02.406Z,41.93
2023-04-19T20:04:29.710Z,41.90
2023-04-19T20:09:27.668Z,41.55
2023-04-19T20:11:54.404Z,41.53
2023-04-19T20:14:23.468Z,41.44
2023-04-19T20:16:50.237Z,41.71
2023-04-19T20:19:16.993Z,43.53
2023-04-19T20:21:43.796Z,42.04
2023-04-19T20:24:10.571Z,41.05
2023-04-19T20:26:37.034Z,41.42
2023-04-19T20:29:03.478Z,42.31
2023-04-19T20:31:30.078Z,41.91
2023-04-19T20:33:56.804Z,43.26
2023-04-19T20:36:23.398Z,42.87
2023-04-19T20:38:50.828Z,43.95
2023-04-19T20:41:18.395Z,43.72
2023-04-19T20:43:45.068Z,42.74
2023-04-19T20:46:11.715Z,44.50
2023-04-19T20:48:38.210Z,43.97
2023-04-19T20:51:04.665Z,44.00
2023-04-19T20:53:31.471Z,44.23
2023-04-19T20:55:57.953Z,44.70
2023-04-19T20:58:24.470Z,45.17
2023-04-19T21:00:51.068Z,44.75
2023-04-19T21:03:17.733Z,45.19
2023-04-19T21:05:44.614Z,46.15
2023-04-19T21:08:11.229Z,46.30
2023-04-19T21:10:37.774Z,46.90
2023-04-19T21:13:04.351Z,46.85
2023-04-19T21:15:30.986Z,46.35
2023-04-19T21:17:57.597Z,47.15
2023-04-19T21:20:24.097Z,46.72
2023-04-19T21:22:50.671Z,46.45
2023-04-19T21:25:17.144Z,47.09
2023-04-19T21:27:43.600Z,46.89
2023-04-19T21:30:11.125Z,45.82
2023-04-19T21:32:37.900Z,45.98
2023-04-19T21:35:04.785Z,45.79
2023-04-19T21:37:31.254Z,47.40
2023-04-19T21:39:57.759Z,46.42
2023-04-19T21:42:24.434Z,45.17
2023-04-19T21:44:50.899Z,45.37
2023-04-19T21:47:17.524Z,44.81
2023-04-19T21:49:43.976Z,44.36
2023-04-19T21:52:10.932Z,44.30
2023-04-19T21:54:37.338Z,44.15
2023-04-19T21:57:04.014Z,44.41
2023-04-19T21:59:30.954Z,44.19
2023-04-19T22:01:58.834Z,44.63
2023-04-19T22:04:26.210Z,43.88
2023-04-19T22:06:52.614Z,42.36
2023-04-19T22:09:19.544Z,42.96
2023-04-19T22:11:45.956Z,42.08
2023-04-19T22:14:12.798Z,41.05
2023-04-19T22:16:39.391Z,40.52
2023-04-19T22:19:06.103Z,41.22
2023-04-19T22:21:32.754Z,40.86
2023-04-19T22:23:59.446Z,40.08
2023-04-19T22:26:26.675Z,39.45
2023-04-19T22:28:54.439Z,40.57
2023-04-19T22:31:20.867Z,38.19
2023-04-19T22:33:47.341Z,39.08
2023-04-19T22:36:13.776Z,39.55
2023-04-19T22:38:40.703Z,39.90
2023-04-19T22:41:07.095Z,39.64
2023-04-19T22:43:33.564Z,39.57
2023-04-19T22:46:01.008Z,38.71
2023-04-19T22:48:30.098Z,38.45
2023-04-19T22:50:56.727Z,38.53
2023-04-19T22:53:23.833Z,37.93
2023-04-19T22:55:50.495Z,38.05
2023-04-19T22:58:18.422Z,38.22
2023-04-19T23:00:45.078Z,36.88
2023-04-19T23:03:11.624Z,36.82
2023-04-19T23:05:38.052Z,35.64
2023-04-19T23:08:04.913Z,36.15
2023-04-19T23:10:31.686Z,35.78
2023-04-19T23:12:58.232Z,36.74
2023-04-19T23:15:25.017Z,36.17
2023-04-19T23:17:52.627Z,36.70
2023-04-19T23:20:19.218Z,36.77
2023-04-19T23:22:45.773Z,36.94
2023-04-19T23:25:12.299Z,36.96
2023-04-19T23:27:38.982Z,38.29
2023-04-19T23:30:07.639Z,38.13
2023-04-19T23:32:34.451Z,37.70
2023-04-19T23:35:01.182Z,39.78
2023-04-19T23:37:27.870Z,38.61
2023-04-19T23:39:54.308Z,39.02
2023-04-19T23:42:21.126Z,38.10
2023-04-19T23:44:47.579Z,39.16
2023-04-19T23:47:14.273Z,40.08
2023-04-19T23:49:40.683Z,38.84
2023-04-19T23:52:07.313Z,41.01
2023-04-19T23:54:33.787Z,38.58
2023-04-19T23:57:00.688Z,39.77
2023-04-19T23:59:27.258Z,39.21
